createdAt,value
2022-10-18T00:01:56.965Z,14.40
2022-10-18T00:07:00.506Z,12.70
2022-10-18T00:12:03.664Z,14.80
2022-10-18T00:17:06.377Z,13.60
2022-10-18T00:22:09.030Z,13.20
2022-10-18T00:27:11.942Z,14.70
2022-10-18T00:32:14.476Z,15.50
2022-10-18T00:37:17.617Z,16.70
2022-10-18T00:42:22.511Z,16.20
2022-10-18T00:47:25.019Z,15.60
2022-10-18T00:52:34.059Z,15.90
2022-10-18T00:57:38.228Z,16.00
2022-10-18T01:02:43.692Z,16.20
2022-10-18T01:07:52.146Z,14.80
2022-10-18T01:13:12.446Z,16.10
2022-10-18T01:18:39.736Z,16.00
2022-10-18T01:24:12.134Z,18.90
2022-10-18T01:29:29.570Z,16.20
2022-10-18T01:34:35.175Z,16.60
2022-10-18T01:39:39.937Z,16.30
2022-10-18T01:44:44.883Z,19.10
2022-10-18T01:49:47.472Z,21.80
2022-10-18T01:54:50.367Z,21.40
2022-10-18T02:00:06.744Z,19.50
2022-10-18T02:05:41.074Z,16.30
2022-10-18T02:10:48.557Z,17.90
2022-10-18T02:15:56.216Z,17.00
2022-10-18T02:21:00.329Z,17.30
2022-10-18T02:26:03.229Z,17.50
2022-10-18T02:31:31.224Z,16.90
2022-10-18T02:36:42.069Z,18.00
2022-10-18T02:41:44.503Z,16.00
2022-10-18T02:46:47.647Z,19.80
2022-10-18T02:51:50.089Z,20.30
2022-10-18T02:56:53.083Z,21.00
2022-10-18T03:01:55.622Z,26.50
2022-10-18T03:06:58.188Z,27.70
2022-10-18T03:12:00.703Z,31.30
2022-10-18T03:17:04.836Z,29.40
2022-10-18T03:22:07.451Z,25.40
2022-10-18T03:27:09.905Z,25.30
2022-10-18T03:32:12.318Z,22.20
2022-10-18T03:37:14.709Z,23.10
2022-10-18T03:42:17.237Z,24.20
2022-10-18T03:47:19.693Z,20.90
2022-10-18T03:52:22.110Z,24.10
2022-10-18T03:57:24.548Z,23.70
2022-10-18T04:02:27.669Z,21.20
2022-10-18T04:07:30.377Z,21.00
2022-10-18T04:12:33.444Z,19.70
2022-10-18T04:17:36.656Z,20.70
2022-10-18T04:22:39.084Z,21.40
2022-10-18T04:27:41.553Z,24.90
2022-10-18T04:32:44.117Z,26.30
2022-10-18T04:37:46.750Z,22.90
2022-10-18T04:42:49.537Z,20.50
2022-10-18T04:47:51.950Z,19.00
2022-10-18T04:52:54.394Z,21.90
2022-10-18T04:57:57.109Z,19.80
2022-10-18T05:02:59.527Z,19.30
2022-10-18T05:08:01.962Z,18.10
2022-10-18T05:13:04.465Z,20.30
2022-10-18T05:18:07.712Z,19.00
2022-10-18T05:23:10.911Z,19.70
2022-10-18T05:28:38.007Z,20.00
2022-10-18T05:33:36.338Z,23.90
2022-10-18T05:38:42.701Z,29.20
2022-10-18T05:43:45.531Z,27.00
2022-10-18T05:48:51.624Z,22.60
2022-10-18T05:53:54.688Z,22.20
2022-10-18T05:58:57.361Z,20.90
2022-10-18T06:03:59.847Z,18.40
2022-10-18T06:09:03.510Z,17.30
2022-10-18T06:14:07.971Z,18.40
2022-10-18T06:19:12.072Z,18.10
2022-10-18T06:24:14.509Z,19.30
2022-10-18T06:29:16.950Z,21.80
2022-10-18T06:34:19.469Z,21.20
2022-10-18T06:39:23.331Z,21.70
2022-10-18T06:44:25.975Z,20.20
2022-10-18T06:49:28.393Z,19.90
2022-10-18T06:54:30.797Z,18.40
2022-10-18T06:59:34.121Z,18.10
2022-10-18T07:04:36.576Z,17.40
2022-10-18T07:09:39.368Z,16.90
2022-10-18T07:14:41.775Z,18.00
2022-10-18T07:19:44.132Z,17.50
2022-10-18T07:24:46.809Z,17.20
2022-10-18T07:29:49.590Z,17.70
2022-10-18T07:34:52.180Z,17.10
2022-10-18T07:39:54.614Z,16.20
2022-10-18T07:44:57.179Z,17.20
2022-10-18T07:49:59.577Z,17.00
2022-10-18T07:55:02.017Z,16.70
2022-10-18T08:00:05.029Z,15.90
2022-10-18T08:05:07.794Z,16.60
2022-10-18T08:10:10.210Z,16.80
2022-10-18T08:15:12.880Z,17.20
2022-10-18T08:20:29.798Z,17.10
2022-10-18T08:30:38.126Z,16.30
2022-10-18T08:35:40.561Z,17.00
2022-10-18T08:40:44.368Z,17.50
2022-10-18T08:45:46.939Z,15.60
2022-10-18T08:50:50.838Z,14.70
2022-10-18T08:56:21.091Z,15.00
2022-10-18T09:07:10.986Z,11.00
2022-10-18T09:12:13.369Z,11.90
2022-10-18T09:17:34.419Z,11.50
2022-10-18T09:22:41.467Z,13.60
2022-10-18T09:27:52.796Z,10.40
2022-10-18T09:33:05.768Z,8.90
2022-10-18T09:38:12.526Z,9.00
2022-10-18T09:43:23.232Z,8.80
2022-10-18T09:54:21.960Z,8.80
2022-10-18T09:59:34.059Z,8.40
2022-10-18T10:04:36.425Z,6.90
2022-10-18T10:09:48.104Z,7.90
2022-10-18T10:14:50.504Z,8.10
2022-10-18T10:19:58.872Z,7.20
2022-10-18T10:25:02.012Z,6.70
2022-10-18T10:30:22.839Z,8.00
2022-10-18T10:41:02.137Z,8.80
2022-10-18T10:46:12.920Z,7.60
2022-10-18T10:51:27.287Z,7.10
2022-10-18T10:56:33.904Z,6.70
2022-10-18T11:01:37.252Z,6.90
2022-10-18T11:06:44.791Z,6.70
2022-10-18T11:11:56.654Z,6.70
2022-10-18T11:17:23.459Z,15.40
2022-10-18T11:22:27.770Z,6.40
2022-10-18T11:27:42.884Z,6.80
2022-10-18T11:33:14.614Z,7.30
2022-10-18T11:38:40.067Z,6.90
2022-10-18T11:44:02.944Z,6.90
2022-10-18T11:49:15.728Z,7.20
2022-10-18T11:54:30.073Z,6.20
2022-10-18T11:59:42.393Z,6.60
2022-10-18T12:05:05.946Z,7.30
2022-10-18T12:10:26.231Z,7.10
2022-10-18T12:15:41.135Z,7.70
2022-10-18T12:20:49.515Z,7.40
2022-10-18T12:25:56.834Z,9.30
2022-10-18T12:31:20.898Z,8.40
2022-10-18T12:36:44.909Z,7.60
2022-10-18T12:41:48.475Z,8.00
2022-10-18T12:46:55.659Z,8.30
2022-10-18T12:52:06.645Z,7.70
2022-10-18T12:57:23.238Z,8.00
2022-10-18T13:02:28.114Z,8.10
2022-10-18T13:07:32.231Z,8.70
2022-10-18T13:12:55.089Z,9.10
2022-10-18T13:18:10.075Z,8.80
2022-10-18T13:23:33.876Z,8.30
2022-10-18T13:29:02.770Z,9.50
2022-10-18T13:34:24.033Z,8.70
2022-10-18T13:39:27.742Z,8.10
2022-10-18T13:44:37.839Z,8.30
2022-10-18T13:49:40.420Z,8.90
2022-10-18T13:55:07.087Z,8.90
2022-10-18T14:00:49.063Z,9.20
2022-10-18T14:05:56.812Z,9.00
2022-10-18T14:11:24.212Z,8.70
2022-10-18T14:16:53.534Z,8.00
2022-10-18T14:22:19.783Z,8.50
2022-10-18T14:27:26.791Z,8.40
2022-10-18T14:32:32.059Z,8.30
2022-10-18T14:37:36.501Z,8.70
2022-10-18T14:42:50.803Z,8.00
2022-10-18T14:47:53.311Z,8.20
2022-10-18T14:52:55.944Z,8.00
2022-10-18T14:57:59.274Z,10.60
2022-10-18T15:03:05.135Z,9.00
2022-10-18T15:08:09.613Z,8.30
2022-10-18T15:13:13.625Z,8.50
2022-10-18T15:18:24.839Z,8.80
2022-10-18T15:23:31.916Z,9.00
2022-10-18T15:28:40.063Z,8.30
2022-10-18T15:33:42.584Z,9.70
2022-10-18T15:38:47.604Z,10.20
2022-10-18T15:44:10.274Z,8.70
2022-10-18T15:49:47.316Z,9.70
2022-10-18T15:54:49.679Z,9.50
2022-10-18T16:00:02.172Z,9.90
2022-10-18T16:05:05.347Z,10.00
2022-10-18T16:10:14.538Z,9.70
2022-10-18T16:15:17.113Z,10.30
2022-10-18T16:20:24.920Z,10.10
2022-10-18T16:25:27.535Z,10.30
2022-10-18T16:30:32.954Z,10.60
2022-10-18T16:35:35.856Z,9.30
2022-10-18T16:40:41.168Z,9.60
2022-10-18T16:45:44.598Z,9.90
2022-10-18T16:50:47.930Z,10.00
2022-10-18T16:55:57.301Z,10.10
2022-10-18T17:01:01.894Z,10.20
2022-10-18T17:06:13.358Z,10.60
2022-10-18T17:11:16.920Z,10.40
2022-10-18T17:16:38.854Z,9.90
2022-10-18T17:21:41.620Z,10.60
2022-10-18T17:26:44.353Z,13.90
2022-10-18T17:31:47.853Z,9.50
2022-10-18T17:36:50.338Z,9.70
2022-10-18T17:41:52.806Z,9.60
2022-10-18T17:46:56.292Z,10.00
2022-10-18T17:52:01.150Z,9.30
2022-10-18T17:57:05.736Z,9.80
2022-10-18T18:02:10.799Z,10.00
2022-10-18T18:07:13.519Z,10.50
2022-10-18T18:12:16.280Z,9.30
2022-10-18T18:17:28.568Z,8.40
2022-10-18T18:22:41.651Z,8.30
2022-10-18T18:27:45.907Z,7.80
2022-10-18T18:32:48.733Z,7.80
2022-10-18T18:37:51.272Z,9.10
2022-10-18T18:43:12.139Z,7.40
2022-10-18T18:48:19.094Z,7.10
2022-10-18T18:53:25.989Z,8.50
2022-10-18T18:58:33.909Z,6.90
2022-10-18T19:03:38.589Z,7.20
2022-10-18T19:08:44.562Z,6.70
2022-10-18T19:13:48.749Z,6.30
2022-10-18T19:18:52.073Z,5.00
2022-10-18T19:23:56.497Z,5.30
2022-10-18T19:29:07.334Z,5.10
2022-10-18T19:34:12.577Z,5.50
2022-10-18T19:39:18.785Z,5.20
2022-10-18T19:44:23.051Z,4.40
2022-10-18T19:49:26.177Z,4.50
2022-10-18T19:54:28.657Z,4.40
2022-10-18T19:59:31.273Z,4.20
2022-10-18T20:04:35.001Z,4.00
2022-10-18T20:09:38.175Z,3.70
2022-10-18T20:14:40.678Z,3.40
2022-10-18T20:19:43.589Z,3.80
2022-10-18T20:24:46.601Z,3.30
2022-10-18T20:29:51.546Z,3.50
2022-10-18T20:34:54.292Z,3.80
2022-10-18T20:39:56.737Z,3.50
2022-10-18T20:44:59.288Z,3.70
2022-10-18T20:50:02.458Z,4.10
2022-10-18T20:55:06.489Z,4.30
2022-10-18T21:00:11.516Z,3.90
2022-10-18T21:05:16.430Z,4.70
2022-10-18T21:10:18.838Z,4.90
2022-10-18T21:15:21.291Z,4.60
2022-10-18T21:20:24.816Z,4.80
2022-10-18T21:25:27.190Z,5.00
2022-10-18T21:30:29.973Z,5.50
2022-10-18T21:35:38.917Z,4.80
2022-10-18T21:40:44.457Z,3.90
2022-10-18T21:45:46.825Z,4.30
2022-10-18T21:50:50.034Z,5.40
2022-10-18T21:55:52.433Z,5.90
2022-10-18T22:00:54.894Z,5.10
2022-10-18T22:06:07.843Z,5.30
2022-10-18T22:11:12.338Z,4.30
2022-10-18T22:16:16.357Z,4.40
2022-10-18T22:21:20.140Z,4.70
2022-10-18T22:26:28.874Z,4.50
2022-10-18T22:31:34.783Z,3.40
2022-10-18T22:36:38.077Z,4.30
2022-10-18T22:41:41.242Z,4.30
2022-10-18T22:46:43.676Z,4.50
2022-10-18T22:51:46.123Z,4.90
2022-10-18T22:56:48.531Z,4.80
2022-10-18T23:01:51.200Z,4.40
2022-10-18T23:06:53.631Z,4.90
2022-10-18T23:11:56.120Z,3.50
2022-10-18T23:16:58.613Z,4.20
2022-10-18T23:22:01.021Z,4.50
2022-10-18T23:27:03.494Z,4.60
2022-10-18T23:32:05.932Z,4.00
2022-10-18T23:37:08.685Z,4.30
2022-10-18T23:42:11.279Z,4.70
2022-10-18T23:47:14.842Z,4.30
2022-10-18T23:52:17.304Z,4.40
2022-10-18T23:57:19.663Z,4.50
